createdAt,value
2023-02-09T00:02:18.299Z,-2.87
2023-02-09T00:04:47.629Z,-2.88
2023-02-09T00:07:15.392Z,-2.90
2023-02-09T00:09:44.918Z,-3.16
2023-02-09T00:12:45.125Z,-3.18
2023-02-09T00:15:12.765Z,-2.99
2023-02-09T00:17:40.529Z,-3.22
2023-02-09T00:20:11.235Z,-3.29
2023-02-09T00:22:39.076Z,-3.17
2023-02-09T00:25:07.505Z,-3.27
2023-02-09T00:27:36.593Z,-3.41
2023-02-09T00:30:05.541Z,-3.17
2023-02-09T00:32:33.918Z,-3.15
2023-02-09T00:35:01.989Z,-3.24
2023-02-09T00:37:31.175Z,-3.48
2023-02-09T00:39:58.963Z,-3.35
2023-02-09T00:42:26.842Z,-3.85
2023-02-09T00:44:54.608Z,-3.28
2023-02-09T00:47:22.697Z,-3.58
2023-02-09T00:49:50.469Z,-3.31
2023-02-09T00:52:18.251Z,-3.36
2023-02-09T00:54:47.623Z,-3.34
2023-02-09T00:57:17.645Z,-3.46
2023-02-09T00:59:45.587Z,-3.58
2023-02-09T01:02:13.638Z,-3.41
2023-02-09T01:04:41.522Z,-3.27
2023-02-09T01:07:09.383Z,-3.49
2023-02-09T01:09:37.901Z,-3.51
2023-02-09T01:12:09.628Z,-3.47
2023-02-09T01:14:39.067Z,-3.71
2023-02-09T01:17:07.328Z,-3.44
2023-02-09T01:19:35.939Z,-3.38
2023-02-09T01:22:04.771Z,-3.47
2023-02-09T01:24:32.808Z,-3.46
2023-02-09T01:27:00.778Z,-3.64
2023-02-09T01:29:30.169Z,-3.47
2023-02-09T01:31:58.242Z,-3.33
2023-02-09T01:34:26.227Z,-3.37
2023-02-09T01:36:54.702Z,-3.54
2023-02-09T01:39:22.717Z,-3.59
2023-02-09T01:41:50.802Z,-3.54
2023-02-09T01:44:56.004Z,-3.49
2023-02-09T01:47:25.401Z,-3.58
2023-02-09T01:49:53.369Z,-3.63
2023-02-09T01:52:26.478Z,-3.55
2023-02-09T01:54:58.873Z,-3.76
2023-02-09T01:57:30.935Z,-3.75
2023-02-09T02:00:02.507Z,-3.75
2023-02-09T02:02:45.832Z,-4.05
2023-02-09T02:05:14.380Z,-3.78
2023-02-09T02:07:46.624Z,-3.86
2023-02-09T02:10:14.551Z,-3.86
2023-02-09T02:12:42.655Z,-4.05
2023-02-09T02:15:12.787Z,-3.98
2023-02-09T02:17:57.086Z,-3.79
2023-02-09T02:21:05.508Z,-4.02
2023-02-09T02:23:42.058Z,-4.24
2023-02-09T02:26:49.422Z,-4.38
2023-02-09T02:29:55.744Z,-4.29
2023-02-09T02:32:38.389Z,-4.28
2023-02-09T02:35:11.920Z,-4.31
2023-02-09T02:37:52.109Z,-5.14
2023-02-09T02:40:33.222Z,-4.17
2023-02-09T02:43:07.613Z,-4.25
2023-02-09T02:45:43.775Z,-4.15
2023-02-09T02:48:24.944Z,-4.07
2023-02-09T02:50:58.638Z,-4.05
2023-02-09T02:53:30.755Z,-4.40
2023-02-09T02:56:02.660Z,-4.25
2023-02-09T02:58:31.799Z,-4.03
2023-02-09T03:01:02.921Z,-4.19
2023-02-09T03:03:35.439Z,-4.05
2023-02-09T03:06:07.162Z,-4.12
2023-02-09T03:08:48.579Z,-4.16
2023-02-09T03:11:17.944Z,-4.46
2023-02-09T03:14:01.121Z,-4.45
2023-02-09T03:16:35.400Z,-4.28
2023-02-09T03:19:14.801Z,-4.16
2023-02-09T03:21:50.948Z,-4.06
2023-02-09T03:24:29.182Z,-4.04
2023-02-09T03:26:59.805Z,-4.23
2023-02-09T03:29:30.434Z,-4.13
2023-02-09T03:31:58.864Z,-4.36
2023-02-09T03:34:28.646Z,-4.69
2023-02-09T03:36:58.550Z,-4.34
2023-02-09T03:39:26.403Z,-4.53
2023-02-09T03:41:54.402Z,-4.26
2023-02-09T03:44:29.121Z,-4.34
2023-02-09T03:46:59.135Z,-4.52
2023-02-09T03:49:31.567Z,-4.38
2023-02-09T03:52:00.630Z,-4.46
2023-02-09T03:54:28.569Z,-4.36
2023-02-09T03:56:56.552Z,-3.86
2023-02-09T03:59:25.928Z,-4.04
2023-02-09T04:01:54.767Z,-4.24
2023-02-09T04:04:23.392Z,-4.44
2023-02-09T04:06:52.992Z,-5.09
2023-02-09T04:09:21.216Z,-4.79
2023-02-09T04:11:49.304Z,-4.45
2023-02-09T04:14:17.506Z,-4.39
2023-02-09T04:16:45.473Z,-4.36
2023-02-09T04:19:13.660Z,-4.48
2023-02-09T04:21:41.636Z,-4.51
2023-02-09T04:24:10.944Z,-4.57
2023-02-09T04:26:39.026Z,-4.98
2023-02-09T04:29:06.912Z,-4.47
2023-02-09T04:31:35.904Z,-4.96
2023-02-09T04:34:03.956Z,-4.67
2023-02-09T04:36:31.894Z,-4.72
2023-02-09T04:38:59.748Z,-4.67
2023-02-09T04:41:29.038Z,-4.82
2023-02-09T04:43:57.055Z,-4.82
2023-02-09T04:46:24.905Z,-4.94
2023-02-09T04:48:52.712Z,-4.68
2023-02-09T04:51:20.534Z,-5.00
2023-02-09T04:53:48.353Z,-4.35
2023-02-09T04:56:17.166Z,-4.36
2023-02-09T04:59:04.015Z,-4.14
2023-02-09T05:01:32.075Z,-4.04
2023-02-09T05:03:59.968Z,-3.90
2023-02-09T05:06:27.812Z,-4.19
2023-02-09T05:08:55.627Z,-3.89
2023-02-09T05:11:25.454Z,-3.92
2023-02-09T05:13:54.703Z,-4.00
2023-02-09T05:16:22.531Z,-4.01
2023-02-09T05:18:51.061Z,-4.07
2023-02-09T05:21:19.173Z,-4.09
2023-02-09T05:23:46.945Z,-4.14
2023-02-09T05:26:14.832Z,-4.15
2023-02-09T05:28:42.762Z,-4.20
2023-02-09T05:31:12.095Z,-4.25
2023-02-09T05:33:39.884Z,-4.06
2023-02-09T05:36:09.691Z,-4.13
2023-02-09T05:38:37.633Z,-4.24
2023-02-09T05:41:06.671Z,-4.27
2023-02-09T05:43:34.466Z,-4.45
2023-02-09T05:46:02.413Z,-4.53
2023-02-09T05:48:31.696Z,-5.53
2023-02-09T05:50:59.480Z,-4.64
2023-02-09T05:53:27.292Z,-5.19
2023-02-09T05:55:55.071Z,-4.36
2023-02-09T05:58:22.872Z,-4.41
2023-02-09T06:00:50.703Z,-4.45
2023-02-09T06:03:18.528Z,-4.27
2023-02-09T06:05:47.712Z,-4.25
2023-02-09T06:08:15.899Z,-4.24
2023-02-09T06:10:43.859Z,-4.50
2023-02-09T06:13:11.892Z,-4.38
2023-02-09T06:15:39.700Z,-4.39
2023-02-09T06:18:07.658Z,-4.48
2023-02-09T06:20:35.676Z,-4.82
2023-02-09T06:23:05.355Z,-4.50
2023-02-09T06:25:33.259Z,-4.62
2023-02-09T06:28:02.677Z,-4.62
2023-02-09T06:30:32.817Z,-4.87
2023-02-09T06:33:00.768Z,-4.67
2023-02-09T06:35:28.664Z,-4.64
2023-02-09T06:37:58.155Z,-4.60
2023-02-09T06:40:27.451Z,-4.55
2023-02-09T06:42:55.317Z,-4.55
2023-02-09T06:45:23.175Z,-4.50
2023-02-09T06:47:50.984Z,-4.75
2023-02-09T06:50:19.453Z,-4.30
2023-02-09T06:52:47.572Z,-4.14
2023-02-09T06:55:16.144Z,-4.25
2023-02-09T06:57:45.359Z,-4.32
2023-02-09T07:00:14.802Z,-4.62
2023-02-09T07:02:44.094Z,-4.57
2023-02-09T07:05:12.627Z,-4.66
2023-02-09T07:07:40.925Z,-4.67
2023-02-09T07:10:10.251Z,-4.64
2023-02-09T07:12:40.530Z,-4.31
2023-02-09T07:15:11.022Z,-4.17
2023-02-09T07:17:39.081Z,-3.95
2023-02-09T07:20:09.004Z,-4.00
2023-02-09T07:22:36.983Z,-4.01
2023-02-09T07:25:05.116Z,-3.99
2023-02-09T07:27:33.189Z,-3.81
2023-02-09T07:30:01.455Z,-3.89
2023-02-09T07:32:30.765Z,-4.23
2023-02-09T07:34:59.427Z,-3.63
2023-02-09T07:37:27.314Z,-3.48
2023-02-09T07:39:55.368Z,-3.37
2023-02-09T07:42:23.515Z,-3.19
2023-02-09T07:44:58.049Z,-3.08
2023-02-09T07:47:25.872Z,-3.11
2023-02-09T07:49:55.167Z,-3.06
2023-02-09T07:52:23.049Z,-3.11
2023-02-09T07:54:51.706Z,-3.85
2023-02-09T07:57:19.659Z,-2.79
2023-02-09T07:59:47.548Z,-2.67
2023-02-09T08:02:27.225Z,-2.61
2023-02-09T08:05:00.955Z,-2.51
2023-02-09T08:07:35.141Z,-2.45
2023-02-09T08:10:03.128Z,-2.39
2023-02-09T08:12:50.364Z,-2.15
2023-02-09T08:15:22.116Z,-2.02
2023-02-09T08:17:52.364Z,-1.86
2023-02-09T08:20:23.416Z,-1.72
2023-02-09T08:22:55.518Z,-1.58
2023-02-09T08:25:25.525Z,-1.45
2023-02-09T08:27:54.394Z,-2.11
2023-02-09T08:30:22.624Z,-1.17
2023-02-09T08:32:50.864Z,-0.97
2023-02-09T08:35:18.976Z,-0.70
2023-02-09T08:37:48.322Z,-0.59
2023-02-09T08:40:16.212Z,-1.19
2023-02-09T08:42:44.148Z,-0.39
2023-02-09T08:45:12.200Z,-0.12
2023-02-09T08:47:40.102Z,-0.12
2023-02-09T08:50:08.257Z,-0.10
2023-02-09T08:52:36.256Z,-0.04
2023-02-09T08:55:06.253Z,-0.69
2023-02-09T08:57:43.429Z,0.07
2023-02-09T09:00:13.382Z,-0.03
2023-02-09T09:02:41.293Z,0.02
2023-02-09T09:05:09.702Z,0.05
2023-02-09T09:07:37.525Z,0.20
2023-02-09T09:10:08.902Z,0.29
2023-02-09T09:12:37.516Z,0.37
2023-02-09T09:15:05.836Z,0.35
2023-02-09T09:17:33.705Z,0.00
2023-02-09T09:20:01.544Z,0.30
2023-02-09T09:22:29.436Z,0.37
2023-02-09T09:24:57.393Z,0.09
2023-02-09T09:27:27.091Z,0.07
2023-02-09T09:29:55.264Z,0.18
2023-02-09T09:32:24.845Z,0.24
2023-02-09T09:34:54.441Z,0.49
2023-02-09T09:37:23.027Z,0.48
2023-02-09T09:39:51.507Z,0.69
2023-02-09T09:42:25.421Z,0.80
2023-02-09T09:44:55.869Z,0.83
2023-02-09T09:47:37.266Z,0.91
2023-02-09T09:50:08.742Z,1.05
2023-02-09T09:52:41.356Z,1.09
2023-02-09T09:55:10.894Z,0.85
2023-02-09T09:57:44.483Z,1.05
2023-02-09T10:00:19.743Z,1.26
2023-02-09T10:02:48.169Z,1.21
2023-02-09T10:05:19.829Z,1.24
2023-02-09T10:07:55.420Z,1.53
2023-02-09T10:10:37.854Z,1.56
2023-02-09T10:13:14.498Z,1.40
2023-02-09T10:15:48.777Z,1.60
2023-02-09T10:18:18.064Z,1.48
2023-02-09T10:20:49.336Z,1.59
2023-02-09T10:23:20.197Z,1.30
2023-02-09T10:25:58.793Z,1.90
2023-02-09T10:28:29.545Z,1.87
2023-02-09T10:31:02.044Z,1.90
2023-02-09T10:33:38.486Z,1.75
2023-02-09T10:36:09.925Z,1.85
2023-02-09T10:38:41.925Z,1.86
2023-02-09T10:41:11.421Z,1.92
2023-02-09T10:43:39.451Z,1.96
2023-02-09T10:46:17.193Z,1.87
2023-02-09T10:48:47.246Z,1.96
2023-02-09T10:51:17.397Z,2.08
2023-02-09T10:53:58.372Z,2.09
2023-02-09T10:56:28.699Z,2.25
2023-02-09T10:59:01.212Z,2.14
2023-02-09T11:01:34.078Z,2.01
2023-02-09T11:04:04.580Z,2.26
2023-02-09T11:06:42.412Z,2.09
2023-02-09T11:09:15.329Z,1.82
2023-02-09T11:11:45.038Z,2.26
2023-02-09T11:14:14.805Z,2.32
2023-02-09T11:16:56.929Z,2.42
2023-02-09T11:19:53.902Z,2.39
2023-02-09T11:22:35.364Z,2.47
2023-02-09T11:25:11.975Z,2.49
2023-02-09T11:27:56.969Z,2.30
2023-02-09T11:30:50.513Z,2.51
2023-02-09T11:33:27.655Z,2.50
2023-02-09T11:36:04.959Z,2.61
2023-02-09T11:38:41.279Z,2.55
2023-02-09T11:41:28.244Z,2.69
2023-02-09T11:43:59.282Z,2.67
2023-02-09T11:46:32.616Z,2.71
2023-02-09T11:49:08.150Z,2.27
2023-02-09T11:51:40.373Z,2.60
2023-02-09T11:54:15.343Z,2.32
2023-02-09T11:56:49.354Z,2.96
2023-02-09T11:59:23.811Z,3.04
2023-02-09T12:01:58.559Z,2.70
2023-02-09T12:04:33.409Z,2.93
2023-02-09T12:07:03.687Z,3.08
2023-02-09T12:09:36.794Z,3.16
2023-02-09T12:12:24.268Z,3.07
2023-02-09T12:15:02.919Z,2.51
2023-02-09T12:17:40.350Z,2.84
2023-02-09T12:20:27.527Z,3.01
2023-02-09T12:23:07.995Z,3.13
2023-02-09T12:25:51.493Z,3.15
2023-02-09T12:28:41.132Z,2.91
2023-02-09T12:31:12.765Z,2.88
2023-02-09T12:34:01.217Z,2.92
2023-02-09T12:36:32.914Z,2.74
2023-02-09T12:39:06.462Z,3.12
2023-02-09T12:42:19.283Z,3.04
2023-02-09T12:45:00.609Z,3.17
2023-02-09T12:47:48.433Z,3.25
2023-02-09T12:50:36.322Z,3.38
2023-02-09T12:53:35.757Z,3.38
2023-02-09T12:56:25.111Z,3.30
2023-02-09T12:59:07.214Z,3.28
2023-02-09T13:02:35.831Z,3.25
2023-02-09T13:05:08.934Z,3.24
2023-02-09T13:07:49.950Z,3.31
2023-02-09T13:10:28.829Z,3.37
2023-02-09T13:13:04.518Z,3.48
2023-02-09T13:15:46.855Z,3.25
2023-02-09T13:18:21.081Z,3.30
2023-02-09T13:21:17.120Z,3.42
2023-02-09T13:23:59.284Z,3.44
2023-02-09T13:26:34.366Z,3.45
2023-02-09T13:29:20.541Z,3.35
2023-02-09T13:31:58.988Z,3.53
2023-02-09T13:34:35.577Z,3.53
2023-02-09T13:37:22.085Z,3.36
2023-02-09T13:39:57.781Z,3.34
2023-02-09T13:42:28.755Z,3.50
2023-02-09T13:44:58.419Z,3.38
2023-02-09T13:47:27.553Z,2.56
2023-02-09T13:50:01.149Z,3.34
2023-02-09T13:52:36.336Z,3.18
2023-02-09T13:55:13.951Z,3.20
2023-02-09T13:57:44.875Z,3.27
2023-02-09T14:00:24.328Z,3.42
2023-02-09T14:02:56.901Z,3.42
2023-02-09T14:05:35.473Z,3.53
2023-02-09T14:08:04.197Z,3.39
2023-02-09T14:10:35.160Z,3.21
2023-02-09T14:13:11.119Z,3.10
2023-02-09T14:16:02.746Z,3.47
2023-02-09T14:18:35.281Z,3.41
2023-02-09T14:21:14.535Z,3.44
2023-02-09T14:23:43.853Z,3.33
2023-02-09T14:26:22.623Z,3.16
2023-02-09T14:28:55.666Z,1.82
2023-02-09T14:31:26.104Z,3.25
2023-02-09T14:33:56.633Z,3.25
2023-02-09T14:36:30.164Z,3.26
2023-02-09T14:39:08.168Z,3.07
2023-02-09T14:41:36.662Z,3.19
2023-02-09T14:44:20.185Z,2.97
2023-02-09T14:46:50.441Z,2.88
2023-02-09T14:49:19.362Z,3.03
2023-02-09T14:51:49.239Z,2.72
2023-02-09T14:54:23.553Z,2.94
2023-02-09T14:56:51.900Z,2.92
2023-02-09T14:59:22.628Z,2.80
2023-02-09T15:01:52.634Z,2.86
2023-02-09T15:04:21.630Z,2.54
2023-02-09T15:06:57.580Z,2.83
2023-02-09T15:09:30.811Z,2.79
2023-02-09T15:12:07.521Z,2.91
2023-02-09T15:14:46.209Z,2.77
2023-02-09T15:17:17.057Z,2.76
2023-02-09T15:19:45.817Z,2.85
2023-02-09T15:22:16.119Z,2.75
2023-02-09T15:24:45.389Z,2.65
2023-02-09T15:27:28.355Z,1.83
2023-02-09T15:30:00.165Z,2.67
2023-02-09T15:32:29.627Z,2.51
2023-02-09T15:34:57.548Z,2.41
2023-02-09T15:37:27.822Z,2.46
2023-02-09T15:39:56.879Z,2.40
2023-02-09T15:42:42.245Z,2.29
2023-02-09T15:45:38.034Z,2.23
2023-02-09T15:48:06.441Z,2.04
2023-02-09T15:50:35.966Z,2.06
2023-02-09T15:53:06.447Z,2.05
2023-02-09T15:55:36.062Z,2.04
2023-02-09T15:58:04.461Z,1.96
2023-02-09T16:00:33.715Z,1.88
2023-02-09T16:03:15.666Z,1.85
2023-02-09T16:05:44.151Z,1.76
2023-02-09T16:08:19.021Z,1.67
2023-02-09T16:10:48.291Z,1.47
2023-02-09T16:13:17.324Z,1.50
2023-02-09T16:15:47.348Z,1.39
2023-02-09T16:18:15.542Z,1.38
2023-02-09T16:20:47.137Z,1.27
2023-02-09T16:23:20.869Z,1.20
2023-02-09T16:25:50.379Z,1.05
2023-02-09T16:28:18.749Z,0.96
2023-02-09T16:30:53.395Z,0.91
2023-02-09T16:33:22.655Z,0.86
2023-02-09T16:35:54.553Z,0.85
2023-02-09T16:38:24.280Z,0.75
2023-02-09T16:40:53.696Z,0.72
2023-02-09T16:43:22.884Z,0.64
2023-02-09T16:46:02.751Z,0.66
2023-02-09T16:48:34.457Z,0.70
2023-02-09T16:51:02.768Z,0.60
2023-02-09T16:53:36.048Z,0.61
2023-02-09T16:56:06.419Z,0.58
2023-02-09T16:58:34.536Z,0.32
2023-02-09T17:01:04.345Z,0.46
2023-02-09T17:03:37.906Z,-0.18
2023-02-09T17:06:07.226Z,0.55
2023-02-09T17:08:35.829Z,0.39
2023-02-09T17:11:05.212Z,0.31
2023-02-09T17:13:33.174Z,0.18
2023-02-09T17:16:05.004Z,-0.58
2023-02-09T17:18:35.467Z,0.14
2023-02-09T17:21:07.628Z,0.22
2023-02-09T17:23:36.920Z,-0.40
2023-02-09T17:26:05.085Z,0.04
2023-02-09T17:28:33.137Z,-0.02
2023-02-09T17:31:04.347Z,0.09
2023-02-09T17:33:34.319Z,0.00
2023-02-09T17:36:25.074Z,-0.13
2023-02-09T17:38:52.191Z,-0.27
2023-02-09T17:41:22.970Z,-0.80
2023-02-09T17:43:51.804Z,-0.48
2023-02-09T17:46:21.564Z,-0.80
2023-02-09T17:48:50.101Z,-0.59
2023-02-09T17:51:22.136Z,-0.53
2023-02-09T17:53:50.573Z,-0.50
2023-02-09T17:56:19.470Z,-0.77
2023-02-09T17:58:48.380Z,-0.68
2023-02-09T18:01:27.262Z,-0.80
2023-02-09T18:03:56.014Z,-0.86
2023-02-09T18:06:29.961Z,-0.89
2023-02-09T18:08:58.087Z,-0.99
2023-02-09T18:11:41.497Z,-0.76
2023-02-09T18:14:11.132Z,-0.89
2023-02-09T18:16:41.177Z,-0.60
2023-02-09T18:19:10.820Z,-0.47
2023-02-09T18:21:39.692Z,-0.51
2023-02-09T18:24:08.392Z,-0.65
2023-02-09T18:26:36.278Z,-0.47
2023-02-09T18:29:04.206Z,-0.49
2023-02-09T18:31:32.061Z,-0.40
2023-02-09T18:34:01.237Z,-0.67
2023-02-09T18:36:29.156Z,-0.28
2023-02-09T18:38:57.473Z,-0.12
2023-02-09T18:41:25.374Z,-0.35
2023-02-09T18:43:54.429Z,-0.16
2023-02-09T18:46:24.530Z,-0.04
2023-02-09T18:48:52.482Z,-0.13
2023-02-09T18:51:22.660Z,-0.27
2023-02-09T18:53:51.306Z,-0.09
2023-02-09T18:56:19.567Z,-0.19
2023-02-09T18:58:48.585Z,-0.07
2023-02-09T19:01:16.727Z,-0.07
2023-02-09T19:03:44.654Z,-0.05
2023-02-09T19:06:13.000Z,-0.06
2023-02-09T19:08:42.397Z,-0.05
2023-02-09T19:11:14.964Z,-0.19
2023-02-09T19:13:42.841Z,-0.04
2023-02-09T19:16:13.953Z,0.01
2023-02-09T19:18:41.803Z,0.04
2023-02-09T19:21:09.708Z,-0.32
2023-02-09T19:23:37.570Z,0.12
2023-02-09T19:26:07.108Z,0.14
2023-02-09T19:28:36.306Z,0.35
2023-02-09T19:31:04.377Z,0.22
2023-02-09T19:33:32.421Z,0.34
2023-02-09T19:36:01.069Z,0.36
2023-02-09T19:38:28.950Z,0.26
2023-02-09T19:41:09.759Z,0.49
2023-02-09T19:43:39.667Z,0.48
2023-02-09T19:46:09.833Z,0.27
2023-02-09T19:48:40.265Z,0.51
2023-02-09T19:51:09.182Z,0.49
2023-02-09T19:53:37.278Z,0.56
2023-02-09T19:56:05.752Z,0.08
2023-02-09T19:58:33.626Z,0.22
2023-02-09T20:01:02.797Z,0.53
2023-02-09T20:03:31.092Z,0.53
2023-02-09T20:05:58.874Z,0.45
2023-02-09T20:08:26.875Z,0.63
2023-02-09T20:10:54.734Z,0.06
2023-02-09T20:15:56.010Z,0.68
2023-02-09T20:18:25.341Z,0.56
2023-02-09T20:20:54.400Z,0.61
2023-02-09T20:23:22.346Z,0.81
2023-02-09T20:25:50.191Z,0.71
2023-02-09T20:28:18.210Z,0.64
2023-02-09T20:30:47.858Z,0.77
2023-02-09T20:33:16.098Z,0.58
2023-02-09T20:35:46.622Z,0.87
2023-02-09T20:38:14.620Z,0.92
2023-02-09T20:40:43.912Z,0.91
2023-02-09T20:43:30.777Z,0.93
2023-02-09T20:46:30.467Z,0.89
2023-02-09T20:48:58.594Z,1.00
2023-02-09T20:51:28.062Z,1.26
2023-02-09T20:53:56.050Z,1.26
2023-02-09T20:56:24.160Z,1.39
2023-02-09T20:58:52.489Z,1.71
2023-02-09T21:01:20.490Z,1.61
2023-02-09T21:03:48.371Z,1.91
2023-02-09T21:06:16.314Z,2.02
2023-02-09T21:08:45.644Z,2.15
2023-02-09T21:11:15.221Z,2.18
2023-02-09T21:13:43.536Z,2.07
2023-02-09T21:16:13.425Z,2.32
2023-02-09T21:18:41.297Z,2.35
2023-02-09T21:21:10.334Z,2.33
2023-02-09T21:23:38.558Z,2.34
2023-02-09T21:26:10.605Z,2.39
2023-02-09T21:28:39.226Z,1.37
2023-02-09T21:31:11.008Z,2.31
2023-02-09T21:33:39.266Z,2.17
2023-02-09T21:36:08.323Z,2.28
2023-02-09T21:38:41.553Z,2.15
2023-02-09T21:41:33.272Z,2.28
2023-02-09T21:44:01.622Z,2.25
2023-02-09T21:46:30.804Z,2.28
2023-02-09T21:48:58.982Z,2.31
2023-02-09T21:51:26.953Z,2.35
2023-02-09T21:53:55.996Z,2.49
2023-02-09T21:56:26.109Z,2.31
2023-02-09T21:58:54.182Z,2.42
2023-02-09T22:01:22.183Z,2.30
2023-02-09T22:03:52.724Z,1.52
2023-02-09T22:06:20.610Z,2.42
2023-02-09T22:08:48.632Z,2.45
2023-02-09T22:11:16.487Z,2.41
2023-02-09T22:13:45.744Z,2.23
2023-02-09T22:16:19.111Z,2.34
2023-02-09T22:18:47.041Z,2.34
2023-02-09T22:21:14.975Z,2.44
2023-02-09T22:23:43.215Z,2.26
2023-02-09T22:26:12.917Z,2.24
2023-02-09T22:28:41.349Z,1.85
2023-02-09T22:31:13.283Z,2.30
2023-02-09T22:33:41.634Z,2.20
2023-02-09T22:36:13.126Z,2.18
2023-02-09T22:38:41.733Z,2.33
2023-02-09T22:41:21.443Z,2.19
2023-02-09T22:43:50.643Z,2.34
2023-02-09T22:46:20.781Z,2.30
2023-02-09T22:48:52.312Z,1.97
2023-02-09T22:51:20.480Z,1.98
2023-02-09T22:53:49.215Z,1.99
2023-02-09T22:56:17.689Z,2.04
2023-02-09T22:58:46.108Z,2.17
2023-02-09T23:01:14.322Z,2.30
2023-02-09T23:03:43.520Z,2.20
2023-02-09T23:06:15.406Z,2.04
2023-02-09T23:08:43.841Z,2.04
2023-02-09T23:11:14.760Z,1.54
2023-02-09T23:13:43.554Z,2.30
2023-02-09T23:16:13.425Z,2.28
2023-02-09T23:18:47.502Z,2.14
2023-02-09T23:21:16.141Z,2.11
2023-02-09T23:23:44.887Z,2.08
2023-02-09T23:26:13.964Z,2.00
2023-02-09T23:28:42.092Z,1.88
2023-02-09T23:31:13.112Z,2.00
2023-02-09T23:33:41.150Z,2.19
2023-02-09T23:36:12.792Z,2.22
2023-02-09T23:38:41.094Z,2.30
2023-02-09T23:41:10.531Z,1.66
2023-02-09T23:43:38.840Z,2.22
2023-02-09T23:46:08.611Z,2.11
2023-02-09T23:48:36.482Z,2.20
2023-02-09T23:51:06.880Z,2.21
2023-02-09T23:53:37.016Z,1.81
2023-02-09T23:56:04.976Z,2.29
2023-02-09T23:58:32.942Z,2.15
